createdAt,value
2023-05-06T00:00:00.280Z,2.33
2023-05-06T00:02:31.248Z,2.08
2023-05-06T00:05:04.194Z,1.63
2023-05-06T00:07:35.308Z,1.90
2023-05-06T00:10:08.595Z,2.05
2023-05-06T00:12:39.579Z,1.73
2023-05-06T00:15:13.647Z,1.75
2023-05-06T00:17:44.286Z,2.10
2023-05-06T00:20:15.690Z,1.80
2023-05-06T00:22:46.246Z,2.28
2023-05-06T00:25:18.463Z,2.00
2023-05-06T00:27:48.947Z,1.80
2023-05-06T00:30:19.512Z,2.10
2023-05-06T00:32:50.030Z,1.65
2023-05-06T00:35:20.794Z,1.85
2023-05-06T00:37:58.741Z,2.47
2023-05-06T00:40:30.925Z,2.00
2023-05-06T00:43:01.385Z,1.70
2023-05-06T00:45:32.018Z,1.85
2023-05-06T00:48:02.657Z,2.25
2023-05-06T00:50:34.131Z,2.17
2023-05-06T00:53:06.789Z,2.30
2023-05-06T00:55:39.214Z,1.92
2023-05-06T00:58:10.101Z,1.80
2023-05-06T01:00:41.050Z,2.75
2023-05-06T01:03:11.602Z,2.20
2023-05-06T01:05:54.036Z,1.90
2023-05-06T01:08:32.407Z,1.80
2023-05-06T01:11:13.508Z,2.25
2023-05-06T01:13:51.386Z,1.80
2023-05-06T01:16:26.256Z,1.85
2023-05-06T01:18:58.658Z,1.80
2023-05-06T01:21:36.102Z,2.10
2023-05-06T01:24:08.723Z,1.98
2023-05-06T01:26:43.283Z,1.88
2023-05-06T01:29:17.756Z,1.90
2023-05-06T01:31:53.855Z,1.80
2023-05-06T01:34:30.950Z,1.88
2023-05-06T01:37:10.481Z,1.90
2023-05-06T01:39:44.293Z,1.67
2023-05-06T01:42:16.730Z,1.77
2023-05-06T01:44:47.660Z,1.95
2023-05-06T01:47:19.925Z,1.63
2023-05-06T01:49:51.163Z,2.10
2023-05-06T01:52:23.381Z,1.75
2023-05-06T01:54:55.538Z,1.88
2023-05-06T01:57:25.961Z,1.98
2023-05-06T01:59:56.636Z,1.67
2023-05-06T02:02:27.250Z,1.70
2023-05-06T02:04:57.764Z,2.00
2023-05-06T02:07:28.246Z,1.55
2023-05-06T02:10:00.628Z,1.80
2023-05-06T02:12:31.117Z,1.90
2023-05-06T02:15:01.660Z,1.50
2023-05-06T02:17:32.195Z,1.95
2023-05-06T02:20:02.611Z,1.60
2023-05-06T02:22:33.074Z,1.55
2023-05-06T02:25:05.165Z,1.60
2023-05-06T02:27:35.585Z,1.80
2023-05-06T02:30:06.158Z,1.60
2023-05-06T02:32:36.942Z,1.63
2023-05-06T02:35:08.401Z,1.90
2023-05-06T02:37:39.034Z,1.55
2023-05-06T02:40:12.287Z,1.90
2023-05-06T02:42:42.891Z,1.77
2023-05-06T02:45:14.294Z,2.10
2023-05-06T02:47:44.942Z,1.80
2023-05-06T02:50:15.463Z,1.70
2023-05-06T02:52:49.079Z,1.90
2023-05-06T02:55:21.449Z,1.73
2023-05-06T02:57:51.896Z,1.75
2023-05-06T03:00:23.155Z,1.60
2023-05-06T03:02:53.766Z,2.00
2023-05-06T03:05:24.336Z,1.83
2023-05-06T03:07:54.827Z,2.10
2023-05-06T03:10:27.026Z,1.90
2023-05-06T03:12:57.513Z,2.17
2023-05-06T03:15:28.126Z,2.03
2023-05-06T03:17:58.611Z,1.88
2023-05-06T03:20:29.732Z,1.52
2023-05-06T03:23:00.197Z,2.00
2023-05-06T03:25:32.467Z,2.15
2023-05-06T03:28:02.923Z,1.65
2023-05-06T03:30:33.434Z,1.40
2023-05-06T03:33:04.679Z,1.50
2023-05-06T03:35:35.330Z,1.90
2023-05-06T03:38:05.852Z,2.13
2023-05-06T03:40:38.232Z,1.92
2023-05-06T03:43:08.646Z,2.03
2023-05-06T03:45:39.854Z,1.40
2023-05-06T03:48:10.435Z,1.98
2023-05-06T03:50:41.190Z,3.25
2023-05-06T03:53:11.854Z,1.88
2023-05-06T03:55:44.440Z,2.00
2023-05-06T03:58:15.042Z,2.08
2023-05-06T04:00:45.478Z,1.75
2023-05-06T04:03:16.097Z,1.77
2023-05-06T04:05:46.661Z,1.85
2023-05-06T04:08:18.033Z,2.47
2023-05-06T04:10:50.171Z,1.63
2023-05-06T04:13:20.679Z,2.15
2023-05-06T04:15:52.184Z,1.88
2023-05-06T04:18:23.215Z,1.90
2023-05-06T04:20:53.577Z,2.05
2023-05-06T04:23:24.301Z,2.60
2023-05-06T04:25:56.653Z,1.77
2023-05-06T04:28:27.222Z,2.08
2023-05-06T04:30:57.719Z,2.33
2023-05-06T04:33:28.306Z,2.20
2023-05-06T04:35:58.886Z,1.83
2023-05-06T04:38:32.702Z,1.80
2023-05-06T04:41:04.829Z,2.55
2023-05-06T04:43:35.325Z,2.50
2023-05-06T04:46:05.833Z,2.15
2023-05-06T04:48:36.363Z,2.00
2023-05-06T04:51:07.355Z,3.05
2023-05-06T04:53:38.195Z,2.53
2023-05-06T04:56:10.822Z,2.28
2023-05-06T04:58:41.192Z,2.70
2023-05-06T05:01:12.561Z,2.30
2023-05-06T05:03:43.195Z,2.40
2023-05-06T05:06:14.223Z,1.95
2023-05-06T05:08:44.953Z,2.13
2023-05-06T05:11:17.371Z,2.28
2023-05-06T05:13:48.050Z,2.53
2023-05-06T05:16:18.601Z,3.78
2023-05-06T05:18:49.144Z,3.88
2023-05-06T05:21:19.629Z,4.45
2023-05-06T05:23:50.270Z,4.88
2023-05-06T05:26:22.717Z,4.28
2023-05-06T05:28:53.162Z,3.92
2023-05-06T05:31:23.712Z,4.03
2023-05-06T05:33:54.460Z,4.40
2023-05-06T05:36:28.550Z,4.20
2023-05-06T05:38:59.762Z,4.40
2023-05-06T05:41:38.710Z,4.20
2023-05-06T05:44:09.660Z,4.35
2023-05-06T05:46:40.247Z,3.80
2023-05-06T05:49:10.777Z,3.50
2023-05-06T05:51:41.315Z,4.07
2023-05-06T05:54:11.808Z,6.85
2023-05-06T05:56:43.970Z,8.13
2023-05-06T05:59:14.351Z,51.20
2023-05-06T06:01:44.724Z,38.60
2023-05-06T06:04:15.244Z,46.33
2023-05-06T06:06:45.776Z,7.72
2023-05-06T06:09:17.614Z,12.93
2023-05-06T06:11:49.819Z,20.30
2023-05-06T06:14:20.369Z,19.98
2023-05-06T06:17:06.603Z,9.90
2023-05-06T06:19:37.050Z,26.10
2023-05-06T06:22:07.479Z,17.08
2023-05-06T06:24:38.021Z,29.73
2023-05-06T06:27:10.492Z,21.05
2023-05-06T06:29:41.102Z,16.67
2023-05-06T06:32:11.627Z,4.35
2023-05-06T06:34:42.169Z,4.13
2023-05-06T06:37:13.625Z,9.45
2023-05-06T06:39:44.167Z,5.55
2023-05-06T06:42:16.972Z,5.78
2023-05-06T06:44:47.555Z,11.73
2023-05-06T06:47:18.108Z,8.95
2023-05-06T06:49:48.705Z,7.50
2023-05-06T06:52:19.244Z,8.50
2023-05-06T06:54:49.894Z,5.00
2023-05-06T06:57:22.139Z,4.63
2023-05-06T06:59:54.529Z,4.57
2023-05-06T07:02:25.049Z,4.63
2023-05-06T07:04:55.986Z,3.92
2023-05-06T07:07:26.532Z,3.92
2023-05-06T07:10:13.582Z,6.45
2023-05-06T07:12:45.723Z,8.18
2023-05-06T07:15:16.243Z,7.50
2023-05-06T07:17:46.829Z,7.63
2023-05-06T07:20:17.334Z,5.30
2023-05-06T07:22:50.427Z,3.92
2023-05-06T07:25:21.031Z,5.47
2023-05-06T07:27:53.161Z,4.88
2023-05-06T07:30:23.672Z,6.65
2023-05-06T07:32:54.301Z,4.38
2023-05-06T07:35:24.933Z,5.35
2023-05-06T07:37:55.393Z,10.32
2023-05-06T07:40:26.027Z,4.57
2023-05-06T07:42:58.179Z,14.27
2023-05-06T07:45:28.708Z,19.13
2023-05-06T07:47:59.371Z,13.30
2023-05-06T07:50:29.889Z,8.85
2023-05-06T07:53:00.995Z,6.40
2023-05-06T07:55:33.826Z,5.25
2023-05-06T07:58:07.134Z,5.20
2023-05-06T08:00:37.648Z,7.45
2023-05-06T08:03:08.351Z,5.32
2023-05-06T08:05:39.081Z,8.43
2023-05-06T08:08:09.607Z,11.02
2023-05-06T08:10:40.121Z,13.15
2023-05-06T08:13:12.528Z,15.02
2023-05-06T08:15:43.527Z,22.83
2023-05-06T08:18:21.867Z,5.60
2023-05-06T08:20:53.183Z,6.90
2023-05-06T08:23:24.007Z,8.48
2023-05-06T08:25:54.578Z,7.43
2023-05-06T08:28:26.809Z,8.75
2023-05-06T08:30:57.367Z,4.28
2023-05-06T08:33:28.096Z,4.82
2023-05-06T08:35:58.933Z,17.38
2023-05-06T08:38:29.747Z,11.15
2023-05-06T08:41:02.895Z,8.32
2023-05-06T08:43:38.028Z,16.55
2023-05-06T08:46:08.799Z,16.63
2023-05-06T08:48:39.719Z,22.85
2023-05-06T08:51:10.917Z,14.82
2023-05-06T08:53:45.181Z,11.55
2023-05-06T08:56:17.756Z,22.38
2023-05-06T08:58:51.542Z,15.95
2023-05-06T09:01:23.089Z,11.38
2023-05-06T09:03:54.280Z,6.82
2023-05-06T09:06:29.304Z,6.65
2023-05-06T09:08:59.913Z,6.07
2023-05-06T09:11:32.705Z,5.78
2023-05-06T09:14:22.337Z,4.35
2023-05-06T09:19:26.553Z,4.45
2023-05-06T09:21:57.585Z,5.47
2023-05-06T09:24:28.336Z,4.47
2023-05-06T09:26:59.715Z,6.63
2023-05-06T09:29:31.882Z,6.53
2023-05-06T09:32:11.222Z,6.85
2023-05-06T09:34:42.891Z,5.03
2023-05-06T09:37:13.471Z,5.97
2023-05-06T09:39:43.999Z,4.68
2023-05-06T09:42:15.328Z,6.07
2023-05-06T09:44:47.493Z,6.47
2023-05-06T09:47:18.206Z,5.38
2023-05-06T09:49:48.909Z,4.97
2023-05-06T09:52:20.288Z,4.30
2023-05-06T09:54:52.993Z,4.00
2023-05-06T09:57:25.317Z,4.43
2023-05-06T09:59:58.282Z,3.80
2023-05-06T10:02:30.271Z,5.07
2023-05-06T10:05:05.410Z,5.30
2023-05-06T10:07:36.871Z,8.05
2023-05-06T10:10:09.610Z,10.85
2023-05-06T10:12:40.326Z,11.57
2023-05-06T10:15:13.329Z,18.25
2023-05-06T10:17:48.336Z,14.20
2023-05-06T10:20:20.526Z,9.77
2023-05-06T10:23:02.608Z,6.10
2023-05-06T10:25:43.351Z,4.82
2023-05-06T10:28:24.061Z,4.93
2023-05-06T10:31:03.638Z,6.55
2023-05-06T10:33:34.324Z,4.97
2023-05-06T10:36:16.468Z,5.70
2023-05-06T10:38:50.066Z,9.88
2023-05-06T10:41:24.588Z,8.00
2023-05-06T10:44:00.288Z,7.72
2023-05-06T10:46:41.826Z,8.30
2023-05-06T10:49:21.810Z,6.63
2023-05-06T10:52:11.748Z,5.95
2023-05-06T10:54:55.802Z,6.40
2023-05-06T10:57:33.544Z,7.35
2023-05-06T11:00:06.832Z,6.30
2023-05-06T11:02:41.698Z,6.95
2023-05-06T11:05:14.017Z,6.15
2023-05-06T11:07:46.061Z,6.30
2023-05-06T11:10:17.514Z,6.47
2023-05-06T11:12:51.029Z,7.75
2023-05-06T11:15:29.052Z,8.35
2023-05-06T11:18:02.878Z,8.68
2023-05-06T11:20:34.355Z,7.35
2023-05-06T11:23:06.176Z,7.45
2023-05-06T11:25:44.629Z,9.40
2023-05-06T11:28:17.348Z,9.88
2023-05-06T11:30:58.393Z,7.22
2023-05-06T11:33:35.419Z,7.72
2023-05-06T11:36:07.604Z,8.98
2023-05-06T11:38:46.869Z,9.80
2023-05-06T11:41:18.590Z,7.35
2023-05-06T11:43:51.450Z,5.50
2023-05-06T11:46:23.775Z,5.22
2023-05-06T11:48:57.253Z,6.80
2023-05-06T11:51:28.277Z,6.82
2023-05-06T11:54:08.637Z,7.90
2023-05-06T11:56:55.275Z,15.55
2023-05-06T11:59:33.663Z,14.63
2023-05-06T12:02:06.225Z,8.18
2023-05-06T12:04:46.610Z,9.07
2023-05-06T12:07:18.764Z,7.85
2023-05-06T12:09:52.234Z,10.85
2023-05-06T12:12:27.417Z,7.80
2023-05-06T12:14:59.213Z,10.95
2023-05-06T12:17:30.890Z,16.85
2023-05-06T12:20:04.157Z,12.65
2023-05-06T12:22:34.948Z,8.05
2023-05-06T12:25:17.288Z,6.30
2023-05-06T12:27:49.501Z,6.18
2023-05-06T12:30:32.689Z,6.68
2023-05-06T12:33:07.289Z,5.32
2023-05-06T12:35:39.715Z,4.80
2023-05-06T12:38:15.224Z,5.15
2023-05-06T12:40:46.791Z,4.97
2023-05-06T12:43:17.399Z,4.45
2023-05-06T12:46:05.010Z,5.03
2023-05-06T12:48:35.703Z,4.57
2023-05-06T12:54:01.307Z,4.05
2023-05-06T12:56:34.831Z,4.00
2023-05-06T12:59:06.113Z,3.85
2023-05-06T13:01:40.095Z,3.90
2023-05-06T13:04:11.328Z,3.90
2023-05-06T13:06:41.869Z,3.70
2023-05-06T13:09:15.338Z,3.67
2023-05-06T13:11:47.206Z,5.30
2023-05-06T13:14:19.025Z,8.82
2023-05-06T13:16:49.745Z,18.05
2023-05-06T13:19:31.692Z,4.68
2023-05-06T13:22:03.947Z,4.55
2023-05-06T13:24:36.382Z,4.75
2023-05-06T13:27:07.169Z,5.63
2023-05-06T13:29:38.470Z,5.03
2023-05-06T13:32:09.305Z,4.88
2023-05-06T13:34:40.886Z,4.72
2023-05-06T13:37:11.473Z,4.47
2023-05-06T13:39:44.535Z,5.10
2023-05-06T13:42:15.186Z,4.47
2023-05-06T13:44:45.750Z,4.63
2023-05-06T13:47:16.216Z,4.50
2023-05-06T13:49:46.881Z,4.68
2023-05-06T13:52:17.604Z,4.20
2023-05-06T13:54:49.796Z,4.07
2023-05-06T13:57:20.352Z,5.07
2023-05-06T13:59:50.854Z,4.95
2023-05-06T14:02:23.501Z,4.30
2023-05-06T14:04:54.082Z,5.15
2023-05-06T14:07:27.209Z,5.40
2023-05-06T14:10:01.878Z,4.70
2023-05-06T14:12:40.066Z,4.57
2023-05-06T14:15:11.287Z,4.90
2023-05-06T14:17:42.180Z,4.55
2023-05-06T14:20:13.610Z,4.45
2023-05-06T14:22:47.466Z,4.32
2023-05-06T14:25:21.874Z,4.13
2023-05-06T14:27:57.769Z,4.10
2023-05-06T14:30:28.567Z,3.90
2023-05-06T14:33:01.911Z,4.35
2023-05-06T14:35:32.508Z,4.70
2023-05-06T14:38:03.049Z,4.88
2023-05-06T14:40:42.413Z,5.00
2023-05-06T14:43:12.862Z,5.88
2023-05-06T14:45:45.729Z,4.15
2023-05-06T14:48:21.175Z,5.05
2023-05-06T14:50:57.212Z,4.57
2023-05-06T14:53:27.774Z,4.15
2023-05-06T14:55:59.854Z,3.58
2023-05-06T14:58:32.994Z,3.70
2023-05-06T15:01:03.570Z,3.70
2023-05-06T15:03:34.114Z,3.65
2023-05-06T15:06:06.812Z,4.00
2023-05-06T15:08:37.939Z,4.25
2023-05-06T15:11:10.345Z,3.95
2023-05-06T15:13:42.968Z,3.90
2023-05-06T15:16:13.908Z,4.30
2023-05-06T15:18:47.031Z,4.57
2023-05-06T15:21:18.339Z,4.25
2023-05-06T15:23:52.645Z,4.40
2023-05-06T15:26:24.926Z,4.03
2023-05-06T15:28:55.550Z,4.40
2023-05-06T15:31:26.286Z,4.05
2023-05-06T15:33:58.849Z,4.72
2023-05-06T15:36:31.022Z,4.18
2023-05-06T15:39:04.745Z,4.18
2023-05-06T15:41:39.354Z,4.38
2023-05-06T15:44:15.955Z,4.05
2023-05-06T15:46:51.702Z,4.18
2023-05-06T15:49:45.461Z,4.00
2023-05-06T15:52:14.517Z,4.45
2023-05-06T15:54:50.961Z,3.70
2023-05-06T15:57:23.171Z,3.88
2023-05-06T15:59:53.707Z,4.25
2023-05-06T16:02:33.157Z,4.00
2023-05-06T16:05:08.520Z,4.03
2023-05-06T16:07:41.192Z,4.05
2023-05-06T16:10:17.736Z,4.32
2023-05-06T16:12:52.914Z,3.70
2023-05-06T16:15:23.994Z,4.43
2023-05-06T16:17:54.652Z,3.78
2023-05-06T16:20:25.242Z,3.90
2023-05-06T16:22:56.247Z,4.10
2023-05-06T16:25:28.948Z,3.90
2023-05-06T16:28:01.362Z,3.97
2023-05-06T16:30:32.361Z,3.80
2023-05-06T16:33:03.065Z,4.25
2023-05-06T16:35:42.790Z,4.40
2023-05-06T16:38:19.187Z,3.78
2023-05-06T16:40:52.110Z,4.25
2023-05-06T16:43:24.156Z,3.85
2023-05-06T16:45:57.126Z,4.45
2023-05-06T16:48:29.520Z,3.70
2023-05-06T16:51:03.270Z,3.83
2023-05-06T16:53:36.808Z,3.65
2023-05-06T16:56:07.655Z,3.75
2023-05-06T16:58:42.983Z,3.60
2023-05-06T17:01:13.652Z,3.72
2023-05-06T17:03:44.376Z,4.10
2023-05-06T17:06:15.170Z,3.70
2023-05-06T17:08:45.711Z,4.30
2023-05-06T17:11:18.110Z,4.20
2023-05-06T17:13:50.725Z,4.28
2023-05-06T17:16:24.079Z,3.88
2023-05-06T17:18:59.068Z,3.72
2023-05-06T17:21:32.259Z,3.72
2023-05-06T17:24:05.635Z,4.43
2023-05-06T17:26:36.867Z,3.70
2023-05-06T17:29:10.426Z,3.53
2023-05-06T17:31:45.585Z,4.20
2023-05-06T17:36:52.895Z,3.72
2023-05-06T17:39:27.303Z,4.30
2023-05-06T17:42:02.019Z,3.88
2023-05-06T17:44:38.270Z,4.63
2023-05-06T17:47:11.754Z,4.35
2023-05-06T17:49:44.342Z,4.03
2023-05-06T17:52:18.646Z,3.60
2023-05-06T17:55:05.809Z,4.32
2023-05-06T17:57:46.743Z,4.22
2023-05-06T18:00:22.188Z,4.20
2023-05-06T18:02:58.098Z,3.88
2023-05-06T18:05:28.747Z,3.80
2023-05-06T18:08:06.496Z,4.15
2023-05-06T18:10:36.966Z,3.90
2023-05-06T18:13:14.333Z,4.25
2023-05-06T18:15:47.796Z,4.22
2023-05-06T18:18:20.979Z,4.22
2023-05-06T18:20:55.574Z,4.15
2023-05-06T18:23:26.039Z,3.80
2023-05-06T18:25:59.560Z,4.30
2023-05-06T18:28:29.998Z,4.32
2023-05-06T18:31:02.232Z,4.72
2023-05-06T18:33:45.021Z,4.75
2023-05-06T18:36:20.830Z,4.40
2023-05-06T18:38:51.940Z,4.07
2023-05-06T18:41:22.644Z,4.40
2023-05-06T18:43:53.243Z,4.10
2023-05-06T18:46:25.473Z,3.90
2023-05-06T18:48:56.826Z,4.10
2023-05-06T18:51:27.478Z,4.18
2023-05-06T18:53:58.025Z,3.80
2023-05-06T18:56:33.487Z,5.30
2023-05-06T18:59:04.018Z,4.45
2023-05-06T19:01:36.225Z,4.20
2023-05-06T19:04:06.972Z,4.05
2023-05-06T19:06:39.195Z,4.50
2023-05-06T19:09:09.638Z,3.92
2023-05-06T19:11:40.053Z,4.65
2023-05-06T19:14:10.404Z,4.20
2023-05-06T19:16:42.646Z,4.18
2023-05-06T19:19:13.209Z,4.20
2023-05-06T19:21:43.625Z,3.63
2023-05-06T19:24:14.083Z,4.60
2023-05-06T19:26:44.505Z,4.15
2023-05-06T19:29:15.471Z,4.00
2023-05-06T19:31:47.661Z,3.83
2023-05-06T19:34:18.198Z,3.97
2023-05-06T19:36:48.720Z,4.50
2023-05-06T19:39:19.246Z,4.07
2023-05-06T19:41:49.753Z,4.03
2023-05-06T19:44:20.187Z,4.57
2023-05-06T19:46:56.419Z,4.22
2023-05-06T19:49:26.964Z,3.75
2023-05-06T19:51:57.396Z,4.32
2023-05-06T19:54:27.827Z,4.53
2023-05-06T19:56:58.211Z,4.30
2023-05-06T19:59:28.736Z,4.20
2023-05-06T20:02:03.130Z,3.92
2023-05-06T20:04:34.388Z,4.28
2023-05-06T20:07:07.887Z,4.30
2023-05-06T20:09:38.331Z,3.50
2023-05-06T20:12:09.594Z,4.20
2023-05-06T20:14:40.061Z,3.63
2023-05-06T20:17:12.283Z,3.42
2023-05-06T20:19:42.657Z,3.38
2023-05-06T20:22:13.169Z,3.72
2023-05-06T20:24:45.076Z,4.18
2023-05-06T20:27:15.651Z,4.20
2023-05-06T20:29:46.401Z,5.13
2023-05-06T20:32:18.732Z,4.13
2023-05-06T20:34:49.333Z,4.53
2023-05-06T20:37:20.914Z,5.30
2023-05-06T20:39:51.320Z,5.32
2023-05-06T20:42:22.709Z,4.45
2023-05-06T20:44:54.183Z,4.30
2023-05-06T20:47:26.382Z,3.90
2023-05-06T20:49:57.573Z,4.60
2023-05-06T20:52:28.285Z,5.03
2023-05-06T20:54:58.939Z,3.95
2023-05-06T20:57:29.527Z,4.05
2023-05-06T21:00:00.087Z,4.20
2023-05-06T21:02:40.026Z,4.00
2023-05-06T21:05:12.793Z,4.38
2023-05-06T21:07:43.621Z,3.90
2023-05-06T21:10:15.239Z,3.92
2023-05-06T21:12:53.323Z,5.10
2023-05-06T21:15:23.847Z,3.88
2023-05-06T21:17:56.059Z,4.00
2023-05-06T21:20:26.570Z,4.07
2023-05-06T21:22:56.949Z,3.88
2023-05-06T21:25:27.726Z,4.63
2023-05-06T21:27:59.238Z,3.90
2023-05-06T21:30:30.133Z,4.70
2023-05-06T21:33:03.167Z,4.05
2023-05-06T21:35:33.829Z,4.07
2023-05-06T21:38:05.888Z,3.70
2023-05-06T21:40:36.343Z,4.13
2023-05-06T21:43:07.029Z,3.90
2023-05-06T21:45:37.488Z,3.65
2023-05-06T21:48:10.102Z,2.97
2023-05-06T21:50:40.793Z,2.60
2023-05-06T21:53:12.269Z,2.75
2023-05-06T21:55:44.870Z,3.00
2023-05-06T21:58:16.089Z,2.50
2023-05-06T22:00:47.088Z,2.88
2023-05-06T22:03:19.244Z,3.00
2023-05-06T22:05:50.064Z,3.10
2023-05-06T22:08:20.626Z,2.60
2023-05-06T22:10:51.242Z,2.80
2023-05-06T22:13:23.553Z,2.83
2023-05-06T22:15:55.470Z,2.60
2023-05-06T22:18:28.822Z,2.95
2023-05-06T22:20:59.517Z,2.15
2023-05-06T22:23:30.053Z,2.35
2023-05-06T22:26:00.608Z,3.03
2023-05-06T22:28:31.186Z,3.13
2023-05-06T22:31:01.780Z,2.65
2023-05-06T22:33:33.845Z,2.88
2023-05-06T22:36:04.305Z,2.55
2023-05-06T22:38:34.825Z,2.58
2023-05-06T22:41:05.305Z,2.80
2023-05-06T22:43:35.779Z,2.53
2023-05-06T22:46:13.009Z,2.83
2023-05-06T22:48:46.064Z,2.55
2023-05-06T22:51:18.190Z,2.90
2023-05-06T22:53:49.321Z,2.75
2023-05-06T22:56:20.705Z,3.45
2023-05-06T22:58:51.274Z,2.90
2023-05-06T23:01:21.893Z,2.38
2023-05-06T23:03:54.033Z,2.83
2023-05-06T23:06:26.570Z,2.70
2023-05-06T23:08:57.156Z,3.03
2023-05-06T23:11:28.021Z,3.58
2023-05-06T23:13:58.524Z,2.88
2023-05-06T23:16:30.282Z,2.30
2023-05-06T23:19:02.630Z,2.60
2023-05-06T23:21:33.286Z,2.42
2023-05-06T23:24:03.823Z,2.35
2023-05-06T23:26:34.303Z,2.70
2023-05-06T23:29:04.768Z,2.30
2023-05-06T23:31:37.514Z,2.25
2023-05-06T23:34:09.732Z,2.10
2023-05-06T23:36:40.245Z,1.88
2023-05-06T23:39:12.389Z,2.20
2023-05-06T23:41:43.068Z,2.00
2023-05-06T23:44:13.563Z,3.45
2023-05-06T23:46:45.046Z,1.70
2023-05-06T23:49:17.609Z,2.13
2023-05-06T23:51:48.091Z,2.13
2023-05-06T23:54:18.532Z,2.40
2023-05-06T23:56:49.061Z,4.57
2023-05-06T23:59:19.465Z,2.80
